sensor_id;sensor_type;location;lat;lon;timestamp;pressure;altitude;pressure_sealevel;temperature;humidity
60874;BME280;46715;40.642;-7.920;2023-03-04T00:00:14;96512.78;;;7.01;81.94
60874;BME280;46715;40.642;-7.920;2023-03-04T00:02:15;96516.22;;;6.90;82.11
60874;BME280;46715;40.642;-7.920;2023-03-04T00:04:16;96511.91;;;6.78;82.65
60874;BME280;46715;40.642;-7.920;2023-03-04T00:06:17;96508.06;;;6.64;83.15
60874;BME280;46715;40.642;-7.920;2023-03-04T00:08:18;96511.69;;;6.63;83.14
60874;BME280;46715;40.642;-7.920;2023-03-04T00:10:19;96515.13;;;6.52;83.23
60874;BME280;46715;40.642;-7.920;2023-03-04T00:12:19;96511.66;;;6.46;83.06
60874;BME280;46715;40.642;-7.920;2023-03-04T00:14:20;96509.69;;;6.36;83.22
60874;BME280;46715;40.642;-7.920;2023-03-04T00:16:22;96509.06;;;6.29;83.68
60874;BME280;46715;40.642;-7.920;2023-03-04T00:18:22;96511.78;;;6.22;83.10
60874;BME280;46715;40.642;-7.920;2023-03-04T00:20:23;96510.22;;;6.21;83.82
60874;BME280;46715;40.642;-7.920;2023-03-04T00:22:24;96516.03;;;6.45;85.03
60874;BME280;46715;40.642;-7.920;2023-03-04T00:24:25;96510.47;;;6.54;85.58
60874;BME280;46715;40.642;-7.920;2023-03-04T00:26:26;96499.13;;;6.89;85.76
60874;BME280;46715;40.642;-7.920;2023-03-04T00:28:27;96497.84;;;7.08;84.99
60874;BME280;46715;40.642;-7.920;2023-03-04T00:30:28;96498.53;;;7.04;84.99
60874;BME280;46715;40.642;-7.920;2023-03-04T00:32:29;96496.34;;;6.95;84.47
60874;BME280;46715;40.642;-7.920;2023-03-04T00:34:30;96496.78;;;6.87;84.48
60874;BME280;46715;40.642;-7.920;2023-03-04T00:36:31;96493.00;;;6.78;84.44
60874;BME280;46715;40.642;-7.920;2023-03-04T00:38:32;96499.44;;;6.75;84.17
60874;BME280;46715;40.642;-7.920;2023-03-04T00:40:33;96490.72;;;6.64;84.90
60874;BME280;46715;40.642;-7.920;2023-03-04T00:42:34;96495.34;;;6.62;84.35
60874;BME280;46715;40.642;-7.920;2023-03-04T00:44:35;96500.53;;;6.62;85.85
60874;BME280;46715;40.642;-7.920;2023-03-04T00:46:35;96487.16;;;6.54;86.30
60874;BME280;46715;40.642;-7.920;2023-03-04T00:48:36;96496.75;;;6.53;85.99
60874;BME280;46715;40.642;-7.920;2023-03-04T00:50:38;96486.88;;;6.50;85.31
60874;BME280;46715;40.642;-7.920;2023-03-04T00:52:39;96488.75;;;6.38;84.75
60874;BME280;46715;40.642;-7.920;2023-03-04T00:54:40;96493.97;;;6.26;84.97
60874;BME280;46715;40.642;-7.920;2023-03-04T00:56:41;96493.69;;;6.10;84.63
60874;BME280;46715;40.642;-7.920;2023-03-04T00:58:41;96490.94;;;6.00;84.36
60874;BME280;46715;40.642;-7.920;2023-03-04T01:00:43;96490.28;;;5.93;84.46
60874;BME280;46715;40.642;-7.920;2023-03-04T01:02:44;96492.19;;;5.86;84.67
60874;BME280;46715;40.642;-7.920;2023-03-04T01:04:45;96490.53;;;5.79;85.13
60874;BME280;46715;40.642;-7.920;2023-03-04T01:06:46;96489.41;;;5.75;85.13
60874;BME280;46715;40.642;-7.920;2023-03-04T01:08:47;96494.59;;;5.75;85.02
60874;BME280;46715;40.642;-7.920;2023-03-04T01:10:47;96490.88;;;5.71;85.14
60874;BME280;46715;40.642;-7.920;2023-03-04T01:12:49;96496.53;;;5.68;85.05
60874;BME280;46715;40.642;-7.920;2023-03-04T01:14:49;96487.09;;;5.62;85.11
60874;BME280;46715;40.642;-7.920;2023-03-04T01:16:50;96489.91;;;5.60;85.56
60874;BME280;46715;40.642;-7.920;2023-03-04T01:18:51;96487.00;;;5.57;85.60
60874;BME280;46715;40.642;-7.920;2023-03-04T01:20:52;96488.44;;;5.64;86.43
60874;BME280;46715;40.642;-7.920;2023-03-04T01:22:53;96485.63;;;5.66;86.74
60874;BME280;46715;40.642;-7.920;2023-03-04T01:24:54;96480.19;;;5.68;86.50
60874;BME280;46715;40.642;-7.920;2023-03-04T01:26:55;96478.22;;;5.58;86.43
60874;BME280;46715;40.642;-7.920;2023-03-04T01:28:56;96471.91;;;5.54;85.77
60874;BME280;46715;40.642;-7.920;2023-03-04T01:30:57;96477.00;;;5.49;85.73
60874;BME280;46715;40.642;-7.920;2023-03-04T01:32:58;96478.72;;;5.43;85.64
60874;BME280;46715;40.642;-7.920;2023-03-04T01:34:59;96481.97;;;5.38;85.61
60874;BME280;46715;40.642;-7.920;2023-03-04T01:37:00;96477.47;;;5.34;85.52
60874;BME280;46715;40.642;-7.920;2023-03-04T01:39:01;96479.97;;;5.28;85.79
60874;BME280;46715;40.642;-7.920;2023-03-04T01:41:05;96478.50;;;5.33;86.16
60874;BME280;46715;40.642;-7.920;2023-03-04T01:43:10;96478.13;;;5.41;86.68
60874;BME280;46715;40.642;-7.920;2023-03-04T01:45:17;96475.91;;;5.44;86.93
60874;BME280;46715;40.642;-7.920;2023-03-04T01:47:19;96471.28;;;5.46;86.21
60874;BME280;46715;40.642;-7.920;2023-03-04T01:49:22;96471.50;;;5.45;85.70
60874;BME280;46715;40.642;-7.920;2023-03-04T01:51:23;96474.78;;;5.40;85.45
60874;BME280;46715;40.642;-7.920;2023-03-04T01:53:26;96470.50;;;5.34;85.08
60874;BME280;46715;40.642;-7.920;2023-03-04T01:55:28;96467.72;;;5.24;84.69
60874;BME280;46715;40.642;-7.920;2023-03-04T01:57:34;96462.91;;;5.16;84.83
60874;BME280;46715;40.642;-7.920;2023-03-04T01:59:35;96457.63;;;5.10;85.40
60874;BME280;46715;40.642;-7.920;2023-03-04T02:01:38;96456.84;;;5.10;85.68
60874;BME280;46715;40.642;-7.920;2023-03-04T02:03:39;96464.25;;;5.06;85.51
60874;BME280;46715;40.642;-7.920;2023-03-04T02:05:42;96456.06;;;4.98;86.12
60874;BME280;46715;40.642;-7.920;2023-03-04T02:07:44;96451.22;;;4.89;85.73
60874;BME280;46715;40.642;-7.920;2023-03-04T02:09:45;96443.34;;;4.84;85.63
60874;BME280;46715;40.642;-7.920;2023-03-04T02:11:48;96452.56;;;4.80;85.61
60874;BME280;46715;40.642;-7.920;2023-03-04T02:13:50;96451.03;;;4.79;86.03
60874;BME280;46715;40.642;-7.920;2023-03-04T02:15:51;96448.84;;;4.76;86.46
60874;BME280;46715;40.642;-7.920;2023-03-04T02:17:53;96446.84;;;4.78;87.24
60874;BME280;46715;40.642;-7.920;2023-03-04T02:22:00;96443.25;;;5.03;88.06
60874;BME280;46715;40.642;-7.920;2023-03-04T02:24:18;96438.63;;;5.17;88.52
60874;BME280;46715;40.642;-7.920;2023-03-04T02:26:25;96446.25;;;5.23;88.66
60874;BME280;46715;40.642;-7.920;2023-03-04T02:28:27;96436.03;;;5.17;88.12
60874;BME280;46715;40.642;-7.920;2023-03-04T02:30:28;96435.03;;;5.06;87.40
60874;BME280;46715;40.642;-7.920;2023-03-04T02:32:31;96438.19;;;4.96;87.34
60874;BME280;46715;40.642;-7.920;2023-03-04T02:34:33;96436.41;;;4.85;87.27
60874;BME280;46715;40.642;-7.920;2023-03-04T02:36:34;96431.81;;;4.75;87.09
60874;BME280;46715;40.642;-7.920;2023-03-04T02:38:36;96428.97;;;4.65;87.09
60874;BME280;46715;40.642;-7.920;2023-03-04T02:40:38;96431.47;;;4.59;87.63
60874;BME280;46715;40.642;-7.920;2023-03-04T02:42:43;96434.25;;;4.58;87.71
60874;BME280;46715;40.642;-7.920;2023-03-04T02:44:45;96427.41;;;4.52;87.96
60874;BME280;46715;40.642;-7.920;2023-03-04T02:46:50;96430.31;;;4.43;87.58
60874;BME280;46715;40.642;-7.920;2023-03-04T02:48:51;96431.78;;;4.39;87.78
60874;BME280;46715;40.642;-7.920;2023-03-04T02:50:52;96431.44;;;4.36;87.74
60874;BME280;46715;40.642;-7.920;2023-03-04T02:52:54;96430.88;;;4.34;87.01
60874;BME280;46715;40.642;-7.920;2023-03-04T02:54:55;96431.97;;;4.26;87.07
60874;BME280;46715;40.642;-7.920;2023-03-04T02:57:01;96432.09;;;4.19;86.06
60874;BME280;46715;40.642;-7.920;2023-03-04T02:59:05;96436.22;;;4.08;86.67
60874;BME280;46715;40.642;-7.920;2023-03-04T03:01:06;96438.88;;;4.02;86.50
60874;BME280;46715;40.642;-7.920;2023-03-04T03:03:07;96435.53;;;4.01;86.81
60874;BME280;46715;40.642;-7.920;2023-03-04T03:05:09;96442.56;;;3.94;87.30
60874;BME280;46715;40.642;-7.920;2023-03-04T03:07:10;96433.66;;;3.90;86.72
60874;BME280;46715;40.642;-7.920;2023-03-04T03:09:12;96434.44;;;3.79;86.63
60874;BME280;46715;40.642;-7.920;2023-03-04T03:11:13;96432.59;;;3.67;88.09
60874;BME280;46715;40.642;-7.920;2023-03-04T03:13:14;96430.59;;;3.69;87.79
60874;BME280;46715;40.642;-7.920;2023-03-04T03:15:15;96423.19;;;3.73;87.65
60874;BME280;46715;40.642;-7.920;2023-03-04T03:17:16;96420.28;;;3.69;87.88
60874;BME280;46715;40.642;-7.920;2023-03-04T03:19:17;96427.00;;;3.70;88.05
60874;BME280;46715;40.642;-7.920;2023-03-04T03:21:19;96424.16;;;3.90;87.49
60874;BME280;46715;40.642;-7.920;2023-03-04T03:23:19;96419.78;;;3.91;87.49
60874;BME280;46715;40.642;-7.920;2023-03-04T03:25:20;96428.19;;;3.86;88.36
60874;BME280;46715;40.642;-7.920;2023-03-04T03:27:21;96419.22;;;3.89;88.82
60874;BME280;46715;40.642;-7.920;2023-03-04T03:29:23;96427.81;;;3.83;88.03
60874;BME280;46715;40.642;-7.920;2023-03-04T03:31:24;96422.56;;;3.78;87.94
60874;BME280;46715;40.642;-7.920;2023-03-04T03:33:26;96422.84;;;3.69;88.28
60874;BME280;46715;40.642;-7.920;2023-03-04T03:35:27;96419.47;;;3.69;87.40
60874;BME280;46715;40.642;-7.920;2023-03-04T03:37:28;96418.41;;;3.58;87.26
60874;BME280;46715;40.642;-7.920;2023-03-04T03:39:28;96414.28;;;3.57;87.62
60874;BME280;46715;40.642;-7.920;2023-03-04T03:41:29;96415.97;;;3.63;87.55
60874;BME280;46715;40.642;-7.920;2023-03-04T03:43:30;96406.66;;;3.62;86.70
60874;BME280;46715;40.642;-7.920;2023-03-04T03:45:31;96410.16;;;3.68;86.47
60874;BME280;46715;40.642;-7.920;2023-03-04T03:47:31;96404.81;;;3.69;86.26
60874;BME280;46715;40.642;-7.920;2023-03-04T03:49:32;96403.69;;;3.65;86.90
60874;BME280;46715;40.642;-7.920;2023-03-04T03:51:33;96397.94;;;3.63;86.96
60874;BME280;46715;40.642;-7.920;2023-03-04T03:53:34;96413.19;;;3.65;86.64
60874;BME280;46715;40.642;-7.920;2023-03-04T03:55:34;96409.81;;;3.64;85.70
60874;BME280;46715;40.642;-7.920;2023-03-04T03:57:35;96412.03;;;3.61;85.03
60874;BME280;46715;40.642;-7.920;2023-03-04T03:59:36;96418.84;;;3.55;84.87
60874;BME280;46715;40.642;-7.920;2023-03-04T04:01:37;96409.47;;;3.61;83.89
60874;BME280;46715;40.642;-7.920;2023-03-04T04:03:38;96411.13;;;3.55;84.11
60874;BME280;46715;40.642;-7.920;2023-03-04T04:05:38;96409.53;;;3.54;83.30
60874;BME280;46715;40.642;-7.920;2023-03-04T04:07:40;96405.50;;;3.46;81.73
60874;BME280;46715;40.642;-7.920;2023-03-04T04:09:41;96408.41;;;3.50;81.69
60874;BME280;46715;40.642;-7.920;2023-03-04T04:11:42;96415.38;;;3.49;81.33
60874;BME280;46715;40.642;-7.920;2023-03-04T04:13:42;96408.38;;;3.38;81.17
60874;BME280;46715;40.642;-7.920;2023-03-04T04:15:43;96418.59;;;3.45;80.59
60874;BME280;46715;40.642;-7.920;2023-03-04T04:17:44;96416.28;;;3.55;79.47
60874;BME280;46715;40.642;-7.920;2023-03-04T04:19:45;96417.59;;;3.46;79.63
60874;BME280;46715;40.642;-7.920;2023-03-04T04:21:46;96417.09;;;3.37;80.54
60874;BME280;46715;40.642;-7.920;2023-03-04T04:23:47;96416.16;;;3.31;79.89
60874;BME280;46715;40.642;-7.920;2023-03-04T04:25:48;96421.91;;;3.33;80.78
60874;BME280;46715;40.642;-7.920;2023-03-04T04:27:49;96416.53;;;3.35;80.53
60874;BME280;46715;40.642;-7.920;2023-03-04T04:29:50;96415.09;;;3.39;80.13
60874;BME280;46715;40.642;-7.920;2023-03-04T04:31:50;96413.00;;;3.48;79.67
60874;BME280;46715;40.642;-7.920;2023-03-04T04:33:51;96418.84;;;3.55;79.15
60874;BME280;46715;40.642;-7.920;2023-03-04T04:35:52;96409.25;;;3.62;78.47
60874;BME280;46715;40.642;-7.920;2023-03-04T04:37:53;96414.25;;;3.75;77.17
60874;BME280;46715;40.642;-7.920;2023-03-04T04:39:53;96408.53;;;3.85;76.13
60874;BME280;46715;40.642;-7.920;2023-03-04T04:41:54;96418.91;;;3.97;72.39
60874;BME280;46715;40.642;-7.920;2023-03-04T04:43:55;96417.94;;;4.22;70.99
60874;BME280;46715;40.642;-7.920;2023-03-04T04:45:58;96417.88;;;4.52;69.98
60874;BME280;46715;40.642;-7.920;2023-03-04T04:47:59;96413.59;;;4.70;69.51
60874;BME280;46715;40.642;-7.920;2023-03-04T04:49:59;96422.34;;;5.04;65.88
60874;BME280;46715;40.642;-7.920;2023-03-04T04:52:01;96414.13;;;5.19;64.32
60874;BME280;46715;40.642;-7.920;2023-03-04T04:54:02;96420.06;;;5.20;64.81
60874;BME280;46715;40.642;-7.920;2023-03-04T04:56:10;96412.31;;;5.08;64.87
60874;BME280;46715;40.642;-7.920;2023-03-04T04:58:11;96414.56;;;5.16;64.92
60874;BME280;46715;40.642;-7.920;2023-03-04T05:00:17;96417.50;;;5.20;64.83
60874;BME280;46715;40.642;-7.920;2023-03-04T05:02:18;96409.91;;;5.42;62.45
60874;BME280;46715;40.642;-7.920;2023-03-04T05:04:19;96412.88;;;5.62;61.15
60874;BME280;46715;40.642;-7.920;2023-03-04T05:06:21;96408.81;;;5.67;60.40
60874;BME280;46715;40.642;-7.920;2023-03-04T05:08:22;96402.56;;;5.96;59.52
60874;BME280;46715;40.642;-7.920;2023-03-04T05:10:23;96403.34;;;6.09;59.33
60874;BME280;46715;40.642;-7.920;2023-03-04T05:12:24;96399.72;;;6.44;58.28
60874;BME280;46715;40.642;-7.920;2023-03-04T05:14:25;96396.59;;;6.42;57.40
60874;BME280;46715;40.642;-7.920;2023-03-04T05:16:26;96390.47;;;6.65;56.16
60874;BME280;46715;40.642;-7.920;2023-03-04T05:18:27;96397.75;;;6.68;55.82
60874;BME280;46715;40.642;-7.920;2023-03-04T05:20:28;96395.91;;;6.86;55.70
60874;BME280;46715;40.642;-7.920;2023-03-04T05:22:29;96397.63;;;6.97;55.09
60874;BME280;46715;40.642;-7.920;2023-03-04T05:24:29;96401.91;;;7.08;54.44
60874;BME280;46715;40.642;-7.920;2023-03-04T05:26:30;96400.41;;;7.12;54.50
60874;BME280;46715;40.642;-7.920;2023-03-04T05:28:32;96408.34;;;7.06;54.59
60874;BME280;46715;40.642;-7.920;2023-03-04T05:30:32;96402.69;;;7.09;54.59
60874;BME280;46715;40.642;-7.920;2023-03-04T05:32:33;96408.44;;;6.94;54.28
60874;BME280;46715;40.642;-7.920;2023-03-04T05:34:34;96413.59;;;6.89;54.64
60874;BME280;46715;40.642;-7.920;2023-03-04T05:36:35;96415.97;;;6.73;54.94
60874;BME280;46715;40.642;-7.920;2023-03-04T05:38:36;96412.31;;;6.91;54.51
60874;BME280;46715;40.642;-7.920;2023-03-04T05:40:38;96421.16;;;6.95;54.54
60874;BME280;46715;40.642;-7.920;2023-03-04T05:42:39;96412.38;;;6.96;54.39
60874;BME280;46715;40.642;-7.920;2023-03-04T05:44:40;96421.41;;;6.94;53.93
60874;BME280;46715;40.642;-7.920;2023-03-04T05:46:40;96421.44;;;6.77;54.26
60874;BME280;46715;40.642;-7.920;2023-03-04T05:48:42;96424.72;;;6.89;54.55
60874;BME280;46715;40.642;-7.920;2023-03-04T05:50:43;96421.13;;;6.90;53.74
60874;BME280;46715;40.642;-7.920;2023-03-04T05:52:44;96415.63;;;6.87;54.56
60874;BME280;46715;40.642;-7.920;2023-03-04T05:54:45;96423.63;;;6.85;54.56
60874;BME280;46715;40.642;-7.920;2023-03-04T05:56:45;96414.03;;;6.86;54.77
60874;BME280;46715;40.642;-7.920;2023-03-04T05:58:46;96426.38;;;6.78;54.55
60874;BME280;46715;40.642;-7.920;2023-03-04T06:00:48;96430.97;;;6.71;55.57
60874;BME280;46715;40.642;-7.920;2023-03-04T06:02:49;96427.25;;;6.67;54.92
60874;BME280;46715;40.642;-7.920;2023-03-04T06:04:50;96427.91;;;6.57;55.12
60874;BME280;46715;40.642;-7.920;2023-03-04T06:06:51;96426.88;;;6.58;55.34
60874;BME280;46715;40.642;-7.920;2023-03-04T06:08:52;96418.31;;;6.75;54.16
60874;BME280;46715;40.642;-7.920;2023-03-04T06:10:54;96434.56;;;6.70;54.74
60874;BME280;46715;40.642;-7.920;2023-03-04T06:12:56;96435.59;;;6.69;54.50
60874;BME280;46715;40.642;-7.920;2023-03-04T06:14:57;96425.63;;;6.61;54.97
60874;BME280;46715;40.642;-7.920;2023-03-04T06:16:58;96427.53;;;6.48;55.60
60874;BME280;46715;40.642;-7.920;2023-03-04T06:18:59;96440.06;;;6.40;55.39
60874;BME280;46715;40.642;-7.920;2023-03-04T06:21:02;96435.59;;;6.35;55.44
60874;BME280;46715;40.642;-7.920;2023-03-04T06:23:03;96429.25;;;6.43;55.88
60874;BME280;46715;40.642;-7.920;2023-03-04T06:25:04;96428.78;;;6.46;55.69
60874;BME280;46715;40.642;-7.920;2023-03-04T06:27:05;96434.59;;;6.53;54.67
60874;BME280;46715;40.642;-7.920;2023-03-04T06:29:06;96438.66;;;6.49;55.26
60874;BME280;46715;40.642;-7.920;2023-03-04T06:31:07;96432.94;;;6.47;54.92
60874;BME280;46715;40.642;-7.920;2023-03-04T06:33:08;96440.25;;;6.50;55.17
60874;BME280;46715;40.642;-7.920;2023-03-04T06:35:10;96435.28;;;6.48;55.53
60874;BME280;46715;40.642;-7.920;2023-03-04T06:37:11;96439.38;;;6.61;54.71
60874;BME280;46715;40.642;-7.920;2023-03-04T06:39:12;96434.25;;;6.49;55.61
60874;BME280;46715;40.642;-7.920;2023-03-04T06:41:13;96439.53;;;6.55;54.99
60874;BME280;46715;40.642;-7.920;2023-03-04T06:43:14;96439.84;;;6.58;54.97
60874;BME280;46715;40.642;-7.920;2023-03-04T06:45:14;96428.28;;;6.66;54.54
60874;BME280;46715;40.642;-7.920;2023-03-04T06:47:15;96443.75;;;6.78;54.67
60874;BME280;46715;40.642;-7.920;2023-03-04T06:49:18;96439.28;;;6.73;54.65
60874;BME280;46715;40.642;-7.920;2023-03-04T06:51:19;96448.00;;;6.67;54.78
60874;BME280;46715;40.642;-7.920;2023-03-04T06:53:20;96444.28;;;6.80;53.79
60874;BME280;46715;40.642;-7.920;2023-03-04T06:55:20;96448.63;;;6.74;54.32
60874;BME280;46715;40.642;-7.920;2023-03-04T06:57:21;96442.34;;;6.70;54.43
60874;BME280;46715;40.642;-7.920;2023-03-04T06:59:22;96445.41;;;6.67;54.33
60874;BME280;46715;40.642;-7.920;2023-03-04T07:01:27;96453.03;;;6.74;54.05
60874;BME280;46715;40.642;-7.920;2023-03-04T07:03:28;96456.59;;;6.90;53.67
60874;BME280;46715;40.642;-7.920;2023-03-04T07:05:29;96453.81;;;6.91;53.31
60874;BME280;46715;40.642;-7.920;2023-03-04T07:07:29;96458.19;;;6.91;53.73
60874;BME280;46715;40.642;-7.920;2023-03-04T07:09:30;96451.31;;;6.62;54.63
60874;BME280;46715;40.642;-7.920;2023-03-04T07:11:31;96455.91;;;6.77;53.96
60874;BME280;46715;40.642;-7.920;2023-03-04T07:13:32;96459.78;;;6.75;54.18
60874;BME280;46715;40.642;-7.920;2023-03-04T07:15:34;96465.09;;;6.85;53.74
60874;BME280;46715;40.642;-7.920;2023-03-04T07:17:36;96465.75;;;6.75;54.76
60874;BME280;46715;40.642;-7.920;2023-03-04T07:19:37;96472.09;;;6.85;54.08
60874;BME280;46715;40.642;-7.920;2023-03-04T07:21:38;96469.75;;;6.83;54.13
60874;BME280;46715;40.642;-7.920;2023-03-04T07:23:39;96464.38;;;6.90;53.54
60874;BME280;46715;40.642;-7.920;2023-03-04T07:25:40;96468.38;;;6.97;53.12
60874;BME280;46715;40.642;-7.920;2023-03-04T07:27:41;96477.66;;;6.93;54.09
60874;BME280;46715;40.642;-7.920;2023-03-04T07:29:41;96480.19;;;7.05;53.24
60874;BME280;46715;40.642;-7.920;2023-03-04T07:31:42;96467.41;;;7.21;53.16
60874;BME280;46715;40.642;-7.920;2023-03-04T07:33:43;96483.22;;;7.19;53.10
60874;BME280;46715;40.642;-7.920;2023-03-04T07:35:44;96481.94;;;7.44;52.37
60874;BME280;46715;40.642;-7.920;2023-03-04T07:37:45;96487.97;;;7.72;51.58
60874;BME280;46715;40.642;-7.920;2023-03-04T07:39:46;96481.97;;;8.15;50.70
60874;BME280;46715;40.642;-7.920;2023-03-04T07:41:47;96481.22;;;8.47;49.62
60874;BME280;46715;40.642;-7.920;2023-03-04T07:43:48;96483.22;;;9.05;48.65
60874;BME280;46715;40.642;-7.920;2023-03-04T07:45:49;96480.03;;;10.35;46.28
60874;BME280;46715;40.642;-7.920;2023-03-04T07:47:50;96482.78;;;11.31;43.31
60874;BME280;46715;40.642;-7.920;2023-03-04T07:49:51;96479.41;;;12.06;42.29
60874;BME280;46715;40.642;-7.920;2023-03-04T07:51:52;96479.84;;;12.53;40.24
60874;BME280;46715;40.642;-7.920;2023-03-04T07:53:57;96482.00;;;13.05;40.09
60874;BME280;46715;40.642;-7.920;2023-03-04T07:55:58;96485.75;;;13.95;39.07
60874;BME280;46715;40.642;-7.920;2023-03-04T07:57:59;96475.31;;;14.61;36.23
60874;BME280;46715;40.642;-7.920;2023-03-04T07:59:59;96480.41;;;14.20;36.58
60874;BME280;46715;40.642;-7.920;2023-03-04T08:02:00;96485.09;;;14.94;35.98
60874;BME280;46715;40.642;-7.920;2023-03-04T08:04:03;96485.34;;;14.59;35.07
60874;BME280;46715;40.642;-7.920;2023-03-04T08:06:10;96485.56;;;14.96;34.92
60874;BME280;46715;40.642;-7.920;2023-03-04T08:08:11;96489.50;;;15.40;34.28
60874;BME280;46715;40.642;-7.920;2023-03-04T08:10:12;96492.09;;;15.12;33.94
60874;BME280;46715;40.642;-7.920;2023-03-04T08:12:13;96489.69;;;14.69;34.93
60874;BME280;46715;40.642;-7.920;2023-03-04T08:14:14;96485.19;;;14.70;35.31
60874;BME280;46715;40.642;-7.920;2023-03-04T08:16:17;96489.28;;;15.50;34.18
60874;BME280;46715;40.642;-7.920;2023-03-04T08:18:18;96491.66;;;16.16;33.11
60874;BME280;46715;40.642;-7.920;2023-03-04T08:20:19;96485.66;;;16.02;33.17
60874;BME280;46715;40.642;-7.920;2023-03-04T08:22:20;96481.84;;;16.08;32.48
60874;BME280;46715;40.642;-7.920;2023-03-04T08:24:21;96488.75;;;16.41;32.48
60874;BME280;46715;40.642;-7.920;2023-03-04T08:26:31;96492.16;;;17.09;31.05
60874;BME280;46715;40.642;-7.920;2023-03-04T08:28:38;96487.56;;;17.32;30.88
60874;BME280;46715;40.642;-7.920;2023-03-04T08:30:39;96489.09;;;17.16;30.72
60874;BME280;46715;40.642;-7.920;2023-03-04T08:32:40;96481.53;;;17.32;30.77
60874;BME280;46715;40.642;-7.920;2023-03-04T08:34:41;96482.34;;;17.41;30.18
60874;BME280;46715;40.642;-7.920;2023-03-04T08:36:42;96488.75;;;17.58;30.05
60874;BME280;46715;40.642;-7.920;2023-03-04T08:38:43;96478.97;;;17.58;30.08
60874;BME280;46715;40.642;-7.920;2023-03-04T08:40:43;96480.09;;;17.75;29.70
60874;BME280;46715;40.642;-7.920;2023-03-04T08:42:44;96484.38;;;17.53;29.63
60874;BME280;46715;40.642;-7.920;2023-03-04T08:44:45;96485.84;;;17.77;29.74
60874;BME280;46715;40.642;-7.920;2023-03-04T08:46:46;96486.38;;;18.14;29.40
60874;BME280;46715;40.642;-7.920;2023-03-04T08:48:47;96484.84;;;18.21;29.06
60874;BME280;46715;40.642;-7.920;2023-03-04T08:50:48;96485.75;;;18.34;29.14
60874;BME280;46715;40.642;-7.920;2023-03-04T08:52:49;96489.34;;;18.38;28.75
60874;BME280;46715;40.642;-7.920;2023-03-04T08:54:50;96490.97;;;17.90;29.38
60874;BME280;46715;40.642;-7.920;2023-03-04T08:56:51;96485.78;;;18.26;28.72
60874;BME280;46715;40.642;-7.920;2023-03-04T08:58:51;96501.47;;;17.64;29.80
60874;BME280;46715;40.642;-7.920;2023-03-04T09:00:52;96509.16;;;17.03;30.44
60874;BME280;46715;40.642;-7.920;2023-03-04T09:02:53;96501.66;;;17.28;30.78
60874;BME280;46715;40.642;-7.920;2023-03-04T09:04:55;96509.50;;;17.10;30.49
60874;BME280;46715;40.642;-7.920;2023-03-04T09:06:56;96510.81;;;17.70;29.80
60874;BME280;46715;40.642;-7.920;2023-03-04T09:08:56;96516.66;;;18.16;29.16
60874;BME280;46715;40.642;-7.920;2023-03-04T09:10:58;96512.78;;;18.49;28.76
60874;BME280;46715;40.642;-7.920;2023-03-04T09:12:58;96510.69;;;19.07;28.05
60874;BME280;46715;40.642;-7.920;2023-03-04T09:15:02;96516.72;;;19.93;27.47
60874;BME280;46715;40.642;-7.920;2023-03-04T09:17:03;96506.66;;;19.87;27.00
60874;BME280;46715;40.642;-7.920;2023-03-04T09:19:05;96515.69;;;20.70;26.38
60874;BME280;46715;40.642;-7.920;2023-03-04T09:21:06;96512.94;;;21.37;25.90
60874;BME280;46715;40.642;-7.920;2023-03-04T09:23:08;96509.19;;;21.38;24.89
60874;BME280;46715;40.642;-7.920;2023-03-04T09:25:12;96522.44;;;20.25;26.73
60874;BME280;46715;40.642;-7.920;2023-03-04T09:27:14;96524.91;;;20.43;26.65
60874;BME280;46715;40.642;-7.920;2023-03-04T09:29:16;96526.31;;;20.83;25.54
60874;BME280;46715;40.642;-7.920;2023-03-04T09:31:16;96527.81;;;21.63;25.35
60874;BME280;46715;40.642;-7.920;2023-03-04T09:33:17;96526.16;;;22.36;24.62
60874;BME280;46715;40.642;-7.920;2023-03-04T09:35:18;96534.16;;;22.24;23.99
60874;BME280;46715;40.642;-7.920;2023-03-04T09:37:19;96523.72;;;21.53;24.85
60874;BME280;46715;40.642;-7.920;2023-03-04T09:39:20;96532.03;;;20.72;25.58
60874;BME280;46715;40.642;-7.920;2023-03-04T09:41:24;96533.16;;;19.39;26.86
60874;BME280;46715;40.642;-7.920;2023-03-04T09:43:27;96530.88;;;19.20;27.46
60874;BME280;46715;40.642;-7.920;2023-03-04T09:45:42;96532.16;;;20.13;26.73
60874;BME280;46715;40.642;-7.920;2023-03-04T09:47:47;96535.16;;;19.72;26.73
60874;BME280;46715;40.642;-7.920;2023-03-04T09:49:59;96531.53;;;19.47;27.45
60874;BME280;46715;40.642;-7.920;2023-03-04T09:56:27;96525.97;;;18.93;28.44
60874;BME280;46715;40.642;-7.920;2023-03-04T09:58:41;96525.47;;;17.45;29.72
60874;BME280;46715;40.642;-7.920;2023-03-04T10:00:57;96534.00;;;17.91;29.70
60874;BME280;46715;40.642;-7.920;2023-03-04T10:05:18;96532.13;;;17.92;30.02
60874;BME280;46715;40.642;-7.920;2023-03-04T10:07:26;96532.03;;;18.76;28.85
60874;BME280;46715;40.642;-7.920;2023-03-04T10:09:46;96539.81;;;18.89;28.56
60874;BME280;46715;40.642;-7.920;2023-03-04T10:12:11;96533.34;;;19.17;27.75
60874;BME280;46715;40.642;-7.920;2023-03-04T10:16:26;96530.97;;;18.59;28.75
60874;BME280;46715;40.642;-7.920;2023-03-04T10:18:36;96531.25;;;18.05;30.77
60874;BME280;46715;40.642;-7.920;2023-03-04T10:23:15;96544.38;;;15.69;32.95
60874;BME280;46715;40.642;-7.920;2023-03-04T10:25:31;96539.66;;;15.11;34.33
60874;BME280;46715;40.642;-7.920;2023-03-04T10:27:32;96538.72;;;14.88;34.49
60874;BME280;46715;40.642;-7.920;2023-03-04T10:29:33;96539.25;;;14.52;35.15
60874;BME280;46715;40.642;-7.920;2023-03-04T10:31:36;96528.97;;;14.36;35.76
60874;BME280;46715;40.642;-7.920;2023-03-04T10:33:38;96532.66;;;14.35;35.61
60874;BME280;46715;40.642;-7.920;2023-03-04T10:35:44;96522.25;;;14.30;36.47
60874;BME280;46715;40.642;-7.920;2023-03-04T10:37:49;96529.69;;;14.42;35.66
60874;BME280;46715;40.642;-7.920;2023-03-04T10:39:50;96531.03;;;14.58;36.05
60874;BME280;46715;40.642;-7.920;2023-03-04T10:42:02;96530.53;;;14.56;36.24
60874;BME280;46715;40.642;-7.920;2023-03-04T10:44:17;96525.47;;;14.60;35.02
60874;BME280;46715;40.642;-7.920;2023-03-04T10:46:19;96529.44;;;14.57;35.62
60874;BME280;46715;40.642;-7.920;2023-03-04T10:48:26;96522.84;;;14.60;36.50
60874;BME280;46715;40.642;-7.920;2023-03-04T10:50:28;96522.94;;;14.74;36.25
60874;BME280;46715;40.642;-7.920;2023-03-04T10:52:37;96517.41;;;14.75;35.13
60874;BME280;46715;40.642;-7.920;2023-03-04T10:54:47;96514.06;;;14.70;35.13
60874;BME280;46715;40.642;-7.920;2023-03-04T10:56:59;96507.34;;;14.63;35.45